Time;durP1;ratioP1;P1;durP2;ratioP2;P2;SDS_P1;SDS_P2;PMS_P1;PMS_P2;Temp;Humidity;BMP_temperature;BMP_pressure;BME280_temperature;BME280_humidity;BME280_pressure;Samples;Min_cycle;Max_cycle;Signal;HPM_P1;HPM_P2
2021/11/26 00:01:54;;;;;;;184.30;113.80;;;;;;;1.38;100.00;98008.86;102408;1311;61389;-78
2021/11/26 00:04:20;;;;;;;181.40;112.30;;;;;;;1.38;100.00;98013.20;101954;1310;61525;-78
2021/11/26 00:06:47;;;;;;;185.10;114.80;;;;;;;1.39;100.00;98015.81;102606;1311;76346;-80
2021/11/26 00:09:14;;;;;;;182.10;112.90;;;;;;;1.40;100.00;98016.10;102367;1310;69486;-70
2021/11/26 00:11:41;;;;;;;190.80;113.70;;;;;;;1.40;100.00;98013.66;102265;1314;73549;-70
2021/11/26 00:14:15;;;;;;;194.80;116.20;;;;;;;1.41;100.00;98010.96;102059;1317;61280;-71
2021/11/26 00:16:43;;;;;;;198.40;122.00;;;;;;;1.43;100.00;98005.64;102323;1316;62170;-70
2021/11/26 00:19:10;;;;;;;198.90;120.80;;;;;;;1.45;100.00;97989.77;102210;1316;76524;-69
2021/11/26 00:21:40;;;;;;;202.20;122.00;;;;;;;1.49;100.00;97991.88;102295;1313;70308;-70
2021/11/26 00:24:08;;;;;;;191.70;116.40;;;;;;;1.52;100.00;97991.39;102231;1313;73920;-71
2021/11/26 00:26:35;;;;;;;204.40;121.90;;;;;;;1.53;100.00;97986.45;101838;1317;61992;-70
2021/11/26 00:29:02;;;;;;;202.80;121.20;;;;;;;1.54;100.00;97984.12;102257;1310;62169;-70
2021/11/26 00:31:28;;;;;;;203.40;118.10;;;;;;;1.56;100.00;97985.42;101905;1316;76663;-70
2021/11/26 00:33:55;;;;;;;195.40;121.80;;;;;;;1.59;100.00;97984.23;102335;1310;69956;-70
2021/11/26 00:36:21;;;;;;;189.30;116.60;;;;;;;1.62;100.00;97990.23;102277;1310;74020;-70
2021/11/26 00:38:48;;;;;;;191.10;115.50;;;;;;;1.62;100.00;97986.36;102221;1311;62114;-70
2021/11/26 00:41:15;;;;;;;181.20;111.50;;;;;;;1.63;100.00;97983.00;102356;1310;62111;-70
2021/11/26 00:43:43;;;;;;;189.40;111.50;;;;;;;1.63;100.00;97978.61;101888;1317;76273;-72
2021/11/26 00:46:11;;;;;;;190.60;121.00;;;;;;;1.63;100.00;97971.78;102410;1310;69625;-71
2021/11/26 00:48:38;;;;;;;169.90;109.60;;;;;;;1.65;100.00;97968.20;102371;1310;74391;-71
2021/11/26 00:51:05;;;;;;;188.20;117.20;;;;;;;1.65;100.00;97966.63;102443;1316;62244;-70
2021/11/26 00:53:33;;;;;;;190.70;118.60;;;;;;;1.65;100.00;97957.69;102393;1310;62037;-70
2021/11/26 00:55:59;;;;;;;172.50;108.90;;;;;;;1.66;100.00;97951.33;102277;1314;75521;-70
2021/11/26 00:58:26;;;;;;;180.10;111.20;;;;;;;1.66;100.00;97947.64;102285;1314;62126;-70
2021/11/26 01:00:52;;;;;;;171.20;108.00;;;;;;;1.68;100.00;97944.06;102310;1311;73410;-70
2021/11/26 01:03:19;;;;;;;176.20;110.90;;;;;;;1.69;100.00;97936.85;102279;1311;62611;-69
2021/11/26 01:05:47;;;;;;;173.10;108.30;;;;;;;1.70;100.00;97937.68;102291;1311;62196;-70
2021/11/26 01:08:14;;;;;;;163.30;108.20;;;;;;;1.72;100.00;97935.98;102112;1313;77282;-70
2021/11/26 01:10:41;;;;;;;175.20;111.20;;;;;;;1.73;100.00;97939.97;102279;1314;70740;-70
2021/11/26 01:13:09;;;;;;;174.20;110.60;;;;;;;1.73;100.00;97930.86;102238;1311;74506;-70
2021/11/26 01:15:36;;;;;;;171.90;111.20;;;;;;;1.74;100.00;97933.61;102281;1313;62111;-70
2021/11/26 01:18:03;;;;;;;167.50;107.10;;;;;;;1.74;100.00;97929.21;102248;1314;62120;-70
2021/11/26 01:20:31;;;;;;;175.70;109.00;;;;;;;1.77;100.00;97932.45;102314;1311;75393;-70
2021/11/26 01:22:59;;;;;;;181.60;114.70;;;;;;;1.79;100.00;97930.24;102333;1310;69850;-70
2021/11/26 01:25:26;;;;;;;191.30;126.50;;;;;;;1.81;100.00;97931.03;102241;1310;72861;-69
2021/11/26 01:27:53;;;;;;;193.80;126.20;;;;;;;1.82;100.00;97931.15;102259;1313;62220;-70
2021/11/26 01:30:29;;;;;;;199.80;128.60;;;;;;;1.82;100.00;97933.59;102300;1310;62141;-70
2021/11/26 01:32:58;;;;;;;192.30;124.10;;;;;;;1.82;100.00;97931.67;102195;1313;77200;-70
2021/11/26 01:35:25;;;;;;;201.90;129.60;;;;;;;1.83;100.00;97932.65;102307;1311;69333;-70
2021/11/26 01:37:52;;;;;;;204.40;133.90;;;;;;;1.84;100.00;97931.54;102305;1313;73305;-70
2021/11/26 01:40:19;;;;;;;205.80;135.80;;;;;;;1.83;100.00;97929.00;102282;1310;62115;-71
2021/11/26 01:42:49;;;;;;;219.00;142.50;;;;;;;1.81;100.00;97929.08;101648;1310;1004134;-70
2021/11/26 01:45:16;;;;;;;212.70;140.20;;;;;;;1.79;100.00;97931.11;102364;1314;77422;-71
2021/11/26 01:47:43;;;;;;;202.20;134.30;;;;;;;1.79;100.00;97928.86;102319;1310;70368;-70
2021/11/26 01:50:11;;;;;;;205.90;132.00;;;;;;;1.76;100.00;97930.38;102270;1310;73978;-70
2021/11/26 01:52:38;;;;;;;201.60;132.90;;;;;;;1.75;100.00;97929.53;102304;1311;62165;-71
2021/11/26 01:55:06;;;;;;;201.60;132.10;;;;;;;1.75;100.00;97922.88;102317;1310;62135;-70
2021/11/26 01:57:33;;;;;;;253.10;165.40;;;;;;;1.75;100.00;97915.00;102218;1313;76307;-70
2021/11/26 02:00:00;;;;;;;261.60;167.70;;;;;;;1.76;100.00;97914.27;102239;1311;69549;-70
2021/11/26 02:02:27;;;;;;;305.70;193.50;;;;;;;1.76;100.00;97919.70;102305;1310;73317;-70
2021/11/26 02:04:53;;;;;;;268.70;172.80;;;;;;;1.75;100.00;97912.71;101874;1318;62190;-70
2021/11/26 02:07:20;;;;;;;259.20;175.60;;;;;;;1.75;100.00;97909.43;102269;1310;62273;-70
2021/11/26 02:09:47;;;;;;;232.10;160.40;;;;;;;1.73;100.00;97903.54;102271;1310;77231;-70
2021/11/26 02:12:13;;;;;;;226.60;152.40;;;;;;;1.72;100.00;97904.14;102269;1310;69411;-70
2021/11/26 02:14:40;;;;;;;210.20;140.70;;;;;;;1.71;100.00;97904.15;102250;1310;74538;-70
2021/11/26 02:17:06;;;;;;;201.10;132.10;;;;;;;1.72;100.00;97901.65;101796;1318;62325;-71
2021/11/26 02:19:33;;;;;;;199.40;131.50;;;;;;;1.73;100.00;97901.79;102303;1317;62244;-71
2021/11/26 02:22:00;;;;;;;192.90;127.80;;;;;;;1.73;100.00;97893.91;102238;1311;75742;-70
2021/11/26 02:24:26;;;;;;;201.30;131.70;;;;;;;1.73;100.00;97876.91;102284;1310;70536;-71
2021/11/26 02:26:53;;;;;;;193.40;129.90;;;;;;;1.74;100.00;97869.69;102304;1316;74248;-70
2021/11/26 02:29:20;;;;;;;209.00;132.80;;;;;;;1.74;100.00;97881.08;102291;1310;62145;-69
2021/11/26 02:31:48;;;;;;;206.80;139.30;;;;;;;1.76;100.00;97880.11;102282;1310;62206;-70
2021/11/26 02:34:15;;;;;;;209.20;136.10;;;;;;;1.77;100.00;97870.97;102297;1310;76304;-69
2021/11/26 02:36:43;;;;;;;193.50;127.40;;;;;;;1.78;100.00;97867.08;102298;1310;70174;-70
2021/11/26 02:39:12;;;;;;;185.40;122.80;;;;;;;1.79;100.00;97863.01;102244;1317;74527;-70
2021/11/26 02:41:41;;;;;;;184.60;122.00;;;;;;;1.80;100.00;97860.50;102257;1313;62195;-70
2021/11/26 02:44:08;;;;;;;197.50;124.90;;;;;;;1.81;100.00;97854.48;102359;1311;62037;-71
2021/11/26 02:46:36;;;;;;;192.40;127.60;;;;;;;1.81;100.00;97861.31;102341;1310;75637;-70
2021/11/26 02:49:04;;;;;;;197.60;130.20;;;;;;;1.81;100.00;97851.83;102315;1311;70089;-70
2021/11/26 02:51:31;;;;;;;198.40;130.40;;;;;;;1.82;100.00;97847.08;102317;1310;73195;-69
2021/11/26 02:53:58;;;;;;;197.80;133.20;;;;;;;1.82;100.00;97845.48;101988;1313;62239;-70
2021/11/26 02:56:25;;;;;;;197.50;132.90;;;;;;;1.81;100.00;97845.90;101827;1317;62112;-70
2021/11/26 02:58:51;;;;;;;205.90;133.70;;;;;;;1.79;100.00;97846.52;102304;1310;77308;-70
2021/11/26 03:01:18;;;;;;;194.10;130.00;;;;;;;1.77;100.00;97847.31;102243;1310;62206;-70
2021/11/26 03:03:44;;;;;;;200.60;133.50;;;;;;;1.78;100.00;97850.98;102277;1310;73117;-70
2021/11/26 03:06:11;;;;;;;203.00;133.70;;;;;;;1.78;100.00;97848.15;102229;1311;62171;-70
2021/11/26 03:08:38;;;;;;;194.90;130.40;;;;;;;1.79;100.00;97839.20;102317;1310;62389;-70
2021/11/26 03:11:05;;;;;;;192.30;128.70;;;;;;;1.79;100.00;97822.38;102008;1313;77211;-70
2021/11/26 03:13:33;;;;;;;192.50;129.00;;;;;;;1.79;100.00;97824.66;102258;1317;70195;-70
2021/11/26 03:16:00;;;;;;;189.90;127.60;;;;;;;1.78;100.00;97822.27;102315;1311;74314;-70
2021/11/26 03:18:28;;;;;;;178.70;118.00;;;;;;;1.77;100.00;97821.23;102281;1310;62202;-71
2021/11/26 03:20:56;;;;;;;186.70;122.10;;;;;;;1.74;100.00;97817.17;102345;1310;62187;-70
2021/11/26 03:23:24;;;;;;;177.20;120.50;;;;;;;1.73;100.00;97815.30;102482;1310;77207;-70
2021/11/26 03:25:51;;;;;;;173.90;119.00;;;;;;;1.74;100.00;97814.04;102319;1310;68987;-70
2021/11/26 03:28:18;;;;;;;163.40;115.40;;;;;;;1.74;100.00;97819.96;102441;1310;72947;-70
2021/11/26 03:30:45;;;;;;;177.80;120.90;;;;;;;1.75;100.00;97818.67;102359;1316;62031;-71
2021/11/26 03:33:12;;;;;;;178.90;123.00;;;;;;;1.78;100.00;97816.63;102251;1310;62130;-70
2021/11/26 03:35:39;;;;;;;180.90;124.30;;;;;;;1.79;100.00;97812.04;102285;1314;77213;-69
2021/11/26 03:38:05;;;;;;;183.50;123.80;;;;;;;1.79;100.00;97807.15;102282;1313;69304;-69
2021/11/26 03:40:32;;;;;;;193.10;126.90;;;;;;;1.80;100.00;97805.34;102307;1310;73753;-69
2021/11/26 03:42:59;;;;;;;186.60;124.50;;;;;;;1.82;100.00;97801.55;102248;1314;62247;-69
2021/11/26 03:45:29;;;;;;;177.30;122.50;;;;;;;1.83;100.00;97788.55;102327;1310;62209;-70
2021/11/26 03:47:57;;;;;;;173.30;117.00;;;;;;;1.84;100.00;97786.92;102347;1310;76297;-70
2021/11/26 03:50:24;;;;;;;184.70;116.80;;;;;;;1.85;100.00;97790.73;102356;1311;69219;-69
2021/11/26 03:52:51;;;;;;;171.80;114.50;;;;;;;1.85;100.00;97789.83;102313;1310;74520;-71
2021/11/26 03:55:21;;;;;;;166.00;113.50;;;;;;;1.84;100.00;97795.13;102290;1317;62197;-70
2021/11/26 03:57:48;;;;;;;170.10;111.30;;;;;;;1.82;100.00;97794.38;101998;1317;62235;-71
2021/11/26 04:00:16;;;;;;;172.80;116.00;;;;;;;1.82;100.00;97794.00;102399;1311;75438;-70
2021/11/26 04:02:44;;;;;;;166.80;113.20;;;;;;;1.83;100.00;97793.30;102301;1313;70677;-70
2021/11/26 04:05:11;;;;;;;171.00;114.80;;;;;;;1.83;100.00;97789.40;102324;1310;73620;-70
2021/11/26 04:07:38;;;;;;;171.00;112.20;;;;;;;1.83;100.00;97781.03;102370;1310;62086;-70
2021/11/26 04:10:06;;;;;;;167.30;109.00;;;;;;;1.83;100.00;97771.38;101963;1316;62296;-70
2021/11/26 04:12:33;;;;;;;168.40;113.10;;;;;;;1.82;100.00;97765.83;102425;1310;76359;-70
2021/11/26 04:15:00;;;;;;;169.00;113.10;;;;;;;1.82;100.00;97765.10;102319;1310;69354;-70
2021/11/26 04:17:26;;;;;;;172.00;115.30;;;;;;;1.82;100.00;97763.54;102227;1313;74443;-71
2021/11/26 04:19:53;;;;;;;168.10;113.90;;;;;;;1.82;100.00;97761.42;101929;1313;62238;-70
2021/11/26 04:22:20;;;;;;;171.50;112.60;;;;;;;1.81;100.00;97757.29;102290;1311;62117;-69
2021/11/26 04:24:46;;;;;;;165.20;108.10;;;;;;;1.81;100.00;97752.75;102331;1310;76103;-70
2021/11/26 04:27:13;;;;;;;154.20;106.30;;;;;;;1.81;100.00;97747.65;102341;1310;70503;-69
2021/11/26 04:29:39;;;;;;;156.20;103.50;;;;;;;1.80;100.00;97750.85;102336;1311;72791;-70
2021/11/26 04:32:07;;;;;;;158.40;104.90;;;;;;;1.80;100.00;97750.02;102232;1310;62257;-70
2021/11/26 04:34:34;;;;;;;148.40;102.80;;;;;;;1.78;100.00;97737.15;102210;1313;62153;-70
2021/11/26 04:37:01;;;;;;;150.70;99.70;;;;;;;1.75;100.00;97737.44;102342;1314;75376;-70
2021/11/26 04:39:27;;;;;;;146.60;100.60;;;;;;;1.74;100.00;97739.96;102339;1310;70353;-70
2021/11/26 04:41:54;;;;;;;153.30;101.70;;;;;;;1.75;100.00;97742.73;102168;1310;175726;-71
2021/11/26 04:44:21;;;;;;;153.10;103.10;;;;;;;1.75;100.00;97742.54;102259;1314;62211;-69
2021/11/26 04:46:47;;;;;;;151.70;104.30;;;;;;;1.76;100.00;97737.60;102311;1310;62212;-71
2021/11/26 04:49:14;;;;;;;148.90;101.90;;;;;;;1.76;100.00;97739.67;102350;1310;76260;-71
2021/11/26 04:51:41;;;;;;;143.70;99.30;;;;;;;1.76;100.00;97736.16;101993;1310;68413;-71
2021/11/26 04:54:07;;;;;;;152.70;104.30;;;;;;;1.77;100.00;97730.55;102513;1310;73940;-71
2021/11/26 04:56:34;;;;;;;158.90;101.70;;;;;;;1.78;100.00;97730.85;102092;1313;62311;-70
2021/11/26 04:59:01;;;;;;;151.40;102.40;;;;;;;1.77;100.00;97734.20;102509;1310;62139;-70
2021/11/26 05:01:28;;;;;;;161.30;104.30;;;;;;;1.77;100.00;97731.41;102415;1310;76903;-70
2021/11/26 05:03:54;;;;;;;154.00;100.00;;;;;;;1.77;100.00;97726.88;102371;1310;70619;-70
2021/11/26 05:06:21;;;;;;;154.10;100.70;;;;;;;1.78;100.00;97728.55;102377;1310;74234;-70
2021/11/26 05:08:47;;;;;;;151.00;96.50;;;;;;;1.80;100.00;97723.02;102396;1310;61990;-70
2021/11/26 05:11:14;;;;;;;148.10;98.50;;;;;;;1.80;100.00;97710.77;102128;1311;62026;-70
2021/11/26 05:13:43;;;;;;;151.30;96.80;;;;;;;1.79;100.00;97712.92;102370;1310;76432;-70
2021/11/26 05:16:14;;;;;;;150.90;97.50;;;;;;;1.78;100.00;97710.53;102408;1311;69287;-70
2021/11/26 05:18:43;;;;;;;151.60;99.30;;;;;;;1.77;100.00;97711.27;102526;1310;74472;-70
2021/11/26 05:21:11;;;;;;;147.00;99.50;;;;;;;1.75;100.00;97703.14;102394;1313;62095;-71
2021/11/26 05:23:38;;;;;;;153.60;101.10;;;;;;;1.72;100.00;97700.45;102479;1310;62138;-70
2021/11/26 05:26:05;;;;;;;148.40;97.70;;;;;;;1.71;100.00;97704.40;102420;1311;76346;-70
2021/11/26 05:28:32;;;;;;;157.80;104.20;;;;;;;1.69;100.00;97705.56;102430;1310;69582;-71
2021/11/26 05:30:59;;;;;;;157.10;102.00;;;;;;;1.68;100.00;97700.19;102436;1311;73732;-70
2021/11/26 05:33:26;;;;;;;150.80;100.50;;;;;;;1.68;100.00;97700.71;102461;1310;62097;-70
2021/11/26 05:35:53;;;;;;;152.40;102.00;;;;;;;1.68;100.00;97690.19;102477;1310;62142;-70
2021/11/26 05:38:19;;;;;;;160.20;105.50;;;;;;;1.68;100.00;97687.58;102500;1311;77481;-70
2021/11/26 05:40:46;;;;;;;152.30;102.90;;;;;;;1.69;100.00;97689.13;102454;1310;69048;-71
2021/11/26 05:43:14;;;;;;;158.90;106.90;;;;;;;1.69;100.00;97687.70;102432;1310;73127;-70
2021/11/26 05:45:41;;;;;;;167.80;107.50;;;;;;;1.70;100.00;97687.63;102370;1310;62110;-70
2021/11/26 05:48:08;;;;;;;160.70;107.20;;;;;;;1.70;100.00;97681.83;102285;1310;62155;-69
2021/11/26 05:50:36;;;;;;;154.40;106.00;;;;;;;1.72;100.00;97680.03;102285;1310;76328;-69
2021/11/26 05:53:03;;;;;;;153.90;105.00;;;;;;;1.72;100.00;97679.30;102277;1310;70615;-70
2021/11/26 05:55:31;;;;;;;158.30;104.90;;;;;;;1.72;100.00;97679.68;102348;1310;73462;-71
2021/11/26 05:58:00;;;;;;;154.30;103.90;;;;;;;1.71;100.00;97677.27;101954;1318;62135;-70
2021/11/26 06:00:28;;;;;;;159.00;102.00;;;;;;;1.70;100.00;97677.49;102443;1310;62199;-70
2021/11/26 06:02:55;;;;;;;174.00;116.50;;;;;;;1.70;100.00;97678.71;102406;1310;77231;-70
2021/11/26 06:05:23;;;;;;;164.10;108.80;;;;;;;1.71;100.00;97682.52;102500;1310;68879;-70
2021/11/26 06:07:51;;;;;;;159.40;108.90;;;;;;;1.72;100.00;97683.14;102306;1310;74318;-71
2021/11/26 06:10:17;;;;;;;169.00;106.90;;;;;;;1.76;100.00;97685.58;102280;1310;62124;-71
2021/11/26 06:12:46;;;;;;;156.00;105.30;;;;;;;1.77;100.00;97680.79;102317;1310;62018;-70
2021/11/26 06:15:14;;;;;;;162.70;105.90;;;;;;;1.79;100.00;97683.69;102189;1316;77304;-71
2021/11/26 06:17:42;;;;;;;162.90;105.60;;;;;;;1.78;100.00;97685.27;102380;1313;69548;-71
2021/11/26 06:20:10;;;;;;;166.30;110.30;;;;;;;1.82;100.00;97681.61;102397;1311;72511;-70
2021/11/26 06:22:37;;;;;;;157.00;104.60;;;;;;;1.84;100.00;97682.70;102423;1310;62118;-70
2021/11/26 06:25:05;;;;;;;161.70;107.10;;;;;;;1.87;100.00;97683.61;102337;1310;62078;-69
2021/11/26 06:27:32;;;;;;;160.70;107.70;;;;;;;1.89;100.00;97683.48;102314;1314;77309;-70
2021/11/26 06:29:59;;;;;;;147.50;99.20;;;;;;;1.91;100.00;97680.40;102358;1310;69701;-70
2021/11/26 06:32:26;;;;;;;149.60;97.60;;;;;;;1.94;100.00;97679.75;102311;1310;72715;-71
2021/11/26 06:34:52;;;;;;;154.00;99.00;;;;;;;1.94;100.00;97681.81;102420;1310;62241;-70
2021/11/26 06:37:19;;;;;;;152.20;96.60;;;;;;;1.94;100.00;97676.92;102399;1314;62228;-71
2021/11/26 06:39:46;;;;;;;152.70;99.80;;;;;;;1.94;100.00;97678.69;102249;1310;77094;-71
2021/11/26 06:42:12;;;;;;;151.10;100.20;;;;;;;1.93;100.00;97681.50;102370;1310;69662;-71
2021/11/26 06:44:39;;;;;;;149.60;99.30;;;;;;;1.95;100.00;97677.61;102368;1311;74287;-71
2021/11/26 06:47:06;;;;;;;153.80;101.50;;;;;;;1.96;100.00;97676.78;102322;1310;62015;-70
2021/11/26 06:49:32;;;;;;;150.80;102.10;;;;;;;1.97;100.00;97672.73;101843;1318;62169;-70
2021/11/26 06:51:59;;;;;;;155.50;102.00;;;;;;;1.97;100.00;97668.52;102340;1310;77308;-69
2021/11/26 06:54:26;;;;;;;147.00;97.10;;;;;;;1.99;100.00;97670.19;102298;1310;68878;-70
2021/11/26 06:56:53;;;;;;;144.60;94.30;;;;;;;2.00;100.00;97670.48;102287;1311;74464;-70
2021/11/26 06:59:19;;;;;;;143.70;92.30;;;;;;;2.02;100.00;97669.86;102267;1314;62047;-70
2021/11/26 07:01:46;;;;;;;137.90;90.60;;;;;;;2.02;100.00;97667.38;101903;1316;62332;-70
2021/11/26 07:04:13;;;;;;;149.20;91.90;;;;;;;2.03;100.00;97663.48;102297;1311;77387;-70
2021/11/26 07:06:39;;;;;;;146.90;92.50;;;;;;;2.04;100.00;97659.42;102314;1311;69368;-70
2021/11/26 07:09:07;;;;;;;144.30;91.50;;;;;;;2.06;100.00;97658.62;102281;1313;73517;-70
2021/11/26 07:11:34;;;;;;;138.90;92.30;;;;;;;2.07;100.00;97659.45;102188;1313;62016;-71
2021/11/26 07:14:01;;;;;;;143.20;92.40;;;;;;;2.07;100.00;97656.61;101923;1316;62051;-72
2021/11/26 07:16:28;;;;;;;154.70;100.70;;;;;;;2.07;100.00;97653.44;101908;1314;75749;-70
2021/11/26 07:18:55;;;;;;;163.50;107.20;;;;;;;2.07;100.00;97647.17;102397;1310;70285;-70
2021/11/26 07:21:22;;;;;;;176.10;116.60;;;;;;;2.07;100.00;97641.16;102399;1313;74560;-71
2021/11/26 07:23:48;;;;;;;147.70;96.50;;;;;;;2.08;100.00;97636.95;102343;1310;62212;-70
2021/11/26 07:26:15;;;;;;;142.70;91.40;;;;;;;2.08;100.00;97632.02;102373;1310;62263;-70
2021/11/26 07:28:42;;;;;;;150.00;92.70;;;;;;;2.08;100.00;97630.63;102289;1314;75230;-70
2021/11/26 07:31:09;;;;;;;142.00;89.80;;;;;;;2.08;100.00;97621.52;101844;1316;70541;-70
2021/11/26 07:33:36;;;;;;;140.50;89.10;;;;;;;2.09;100.00;97614.80;102277;1310;73619;-70
2021/11/26 07:36:03;;;;;;;131.00;85.80;;;;;;;2.10;100.00;97608.82;102299;1310;62251;-70
2021/11/26 07:38:29;;;;;;;124.90;82.70;;;;;;;2.10;100.00;97601.79;102306;1311;61995;-70
2021/11/26 07:40:56;;;;;;;122.40;79.20;;;;;;;2.10;100.00;97603.52;102294;1310;76346;-70
2021/11/26 07:43:23;;;;;;;126.70;81.90;;;;;;;2.09;100.00;97603.95;102263;1310;69338;-70
2021/11/26 07:45:50;;;;;;;129.10;86.50;;;;;;;2.09;100.00;97601.46;102268;1310;73579;-70
2021/11/26 07:48:17;;;;;;;144.50;95.20;;;;;;;2.13;100.00;97601.79;102319;1311;62219;-70
2021/11/26 07:50:44;;;;;;;141.10;94.80;;;;;;;2.16;100.00;97600.55;101940;1316;62294;-70
2021/11/26 07:53:11;;;;;;;147.90;103.30;;;;;;;2.21;100.00;97599.79;102305;1310;76759;-70
2021/11/26 07:55:37;;;;;;;143.20;94.90;;;;;;;2.26;100.00;97596.36;102293;1310;70506;-70
2021/11/26 07:58:06;;;;;;;133.10;85.50;;;;;;;2.29;100.00;97588.47;102244;1314;73302;-69
2021/11/26 08:00:35;;;;;;;125.30;82.30;;;;;;;2.31;100.00;97582.04;102269;1310;62124;-70
2021/11/26 08:03:01;;;;;;;127.50;82.80;;;;;;;2.33;100.00;97581.73;101950;1313;62198;-70
2021/11/26 08:05:32;;;;;;;129.50;85.70;;;;;;;2.35;100.00;97582.55;101958;1314;76006;-70
2021/11/26 08:07:59;;;;;;;130.00;85.50;;;;;;;2.36;100.00;97578.41;102328;1310;69312;-70
2021/11/26 08:10:26;;;;;;;133.70;87.40;;;;;;;2.41;100.00;97573.22;102333;1314;73306;-69
2021/11/26 08:12:53;;;;;;;132.30;86.40;;;;;;;2.47;100.00;97566.95;102366;1311;62122;-69
2021/11/26 08:15:20;;;;;;;122.00;81.00;;;;;;;2.52;100.00;97560.88;102317;1311;62183;-70
2021/11/26 08:17:47;;;;;;;121.30;79.40;;;;;;;2.59;100.00;97557.66;102323;1310;76279;-70
2021/11/26 08:20:15;;;;;;;120.10;80.20;;;;;;;2.65;100.00;97553.84;102310;1310;69728;-71
2021/11/26 08:22:42;;;;;;;122.50;81.30;;;;;;;2.72;100.00;97553.96;102399;1311;74331;-70
2021/11/26 08:25:09;;;;;;;114.60;79.60;;;;;;;2.76;100.00;97554.08;102356;1310;62139;-70
2021/11/26 08:27:37;;;;;;;127.50;84.70;;;;;;;2.82;100.00;97546.48;102296;1310;62149;-70
2021/11/26 08:30:05;;;;;;;116.90;75.90;;;;;;;2.87;100.00;97537.78;102234;1313;77161;-70
2021/11/26 08:32:33;;;;;;;122.50;78.90;;;;;;;2.92;100.00;97533.12;102446;1310;69518;-70
2021/11/26 08:34:59;;;;;;;120.00;78.10;;;;;;;2.95;100.00;97528.55;102434;1314;73775;-70
2021/11/26 08:37:26;;;;;;;111.10;73.20;;;;;;;2.97;100.00;97523.20;102098;1317;62342;-69
2021/11/26 08:39:53;;;;;;;115.00;77.00;;;;;;;2.99;100.00;97520.93;102494;1314;61417;-72
2021/11/26 08:42:19;;;;;;;117.90;76.70;;;;;;;3.05;100.00;97527.02;102094;1316;76239;-70
2021/11/26 08:44:46;;;;;;;113.00;73.50;;;;;;;3.11;100.00;97531.64;102303;1310;70064;-68
2021/11/26 08:47:13;;;;;;;108.40;70.00;;;;;;;3.13;100.00;97527.14;102292;1313;73976;-70
2021/11/26 08:49:39;;;;;;;108.50;70.40;;;;;;;3.14;100.00;97520.91;102299;1313;62209;-70
2021/11/26 08:52:07;;;;;;;95.00;64.60;;;;;;;3.14;100.00;97526.68;102296;1310;62223;-70
2021/11/26 08:54:35;;;;;;;103.10;68.40;;;;;;;3.13;100.00;97521.86;102309;1313;76060;-69
2021/11/26 08:57:02;;;;;;;108.30;68.20;;;;;;;3.12;100.00;97518.22;102355;1310;70261;-69
2021/11/26 08:59:29;;;;;;;107.50;70.10;;;;;;;3.13;100.00;97516.23;102589;1311;74491;-72
2021/11/26 09:01:56;;;;;;;109.00;70.10;;;;;;;3.15;100.00;97513.01;102162;1315;62228;-74
2021/11/26 09:04:25;;;;;;;100.60;67.80;;;;;;;3.17;100.00;97509.67;102451;1310;62126;-76
2021/11/26 09:06:52;;;;;;;113.60;73.70;;;;;;;3.19;100.00;97507.09;102504;1310;77386;-73
2021/11/26 09:09:20;;;;;;;108.30;72.60;;;;;;;3.24;100.00;97507.68;102293;1318;69749;-72
2021/11/26 09:11:46;;;;;;;107.50;73.30;;;;;;;3.27;100.00;97500.27;102280;1311;73905;-73
2021/11/26 09:14:14;;;;;;;114.00;76.10;;;;;;;3.30;100.00;97500.61;102362;1310;62132;-74
2021/11/26 09:16:40;;;;;;;116.00;77.00;;;;;;;3.32;100.00;97499.84;102412;1310;62075;-72
2021/11/26 09:19:07;;;;;;;119.10;76.60;;;;;;;3.32;100.00;97494.54;102377;1310;75787;-72
2021/11/26 09:21:34;;;;;;;112.00;74.80;;;;;;;3.32;100.00;97488.94;102292;1310;69916;-71
2021/11/26 09:24:01;;;;;;;117.40;76.80;;;;;;;3.33;100.00;97481.71;102306;1310;74217;-73
2021/11/26 09:26:28;;;;;;;110.70;73.00;;;;;;;3.33;100.00;97476.42;102344;1310;62079;-72
2021/11/26 09:28:55;;;;;;;108.00;74.40;;;;;;;3.29;100.00;97470.11;102318;1313;62161;-73
2021/11/26 09:31:22;;;;;;;113.20;77.20;;;;;;;3.29;100.00;97472.08;102468;1311;75657;-71
2021/11/26 09:33:52;;;;;;;110.00;75.60;;;;;;;3.33;100.00;97466.60;102342;1310;70593;-73
2021/11/26 09:36:19;;;;;;;98.60;68.30;;;;;;;3.36;100.00;97463.39;102288;1314;72924;-73
2021/11/26 09:38:45;;;;;;;98.30;67.20;;;;;;;3.36;100.00;97454.10;102302;1311;62192;-73
2021/11/26 09:41:14;;;;;;;91.30;62.30;;;;;;;3.34;100.00;97444.59;102363;1310;62193;-72
2021/11/26 09:43:41;;;;;;;99.60;65.60;;;;;;;3.30;100.00;97444.83;102420;1310;77168;-76
2021/11/26 09:46:08;;;;;;;105.80;68.80;;;;;;;3.27;100.00;97441.98;102409;1313;70505;-70
2021/11/26 09:48:37;;;;;;;102.00;69.80;;;;;;;3.30;100.00;97433.23;102342;1311;74522;-70
2021/11/26 09:51:05;;;;;;;104.50;66.20;;;;;;;3.32;100.00;97433.28;102422;1310;62246;-71
2021/11/26 09:53:33;;;;;;;99.70;65.50;;;;;;;3.29;100.00;97431.52;102044;1316;62228;-70
2021/11/26 09:56:03;;;;;;;99.60;65.00;;;;;;;3.23;100.00;97425.77;102610;1310;77204;-69
2021/11/26 09:58:31;;;;;;;87.30;58.80;;;;;;;3.19;100.00;97420.77;102481;1313;70347;-70
2021/11/26 10:01:02;;;;;;;90.90;57.50;;;;;;;3.16;100.00;97418.67;102636;1310;74669;-69
2021/11/26 10:03:44;;;;;;;85.30;57.70;;;;;;;3.12;100.00;97415.77;102563;1310;62235;-72
2021/11/26 10:06:38;;;;;;;88.70;58.40;;;;;;;3.09;100.00;97412.25;101998;1316;62105;-70
2021/11/26 10:09:12;;;;;;;91.70;59.80;;;;;;;3.08;100.00;97407.03;101532;1318;77380;-69
2021/11/26 10:11:44;;;;;;;95.50;61.80;;;;;;;3.06;100.00;97399.24;101584;1318;70024;-70
2021/11/26 10:14:23;;;;;;;89.80;59.30;;;;;;;3.08;100.00;97390.87;101465;1319;74477;-70
2021/11/26 10:17:03;;;;;;;96.00;62.10;;;;;;;3.10;100.00;97391.17;101552;1322;62255;-70
2021/11/26 10:19:30;;;;;;;92.90;59.70;;;;;;;3.10;100.00;97388.52;101677;1319;62273;-69
2021/11/26 10:21:56;;;;;;;89.20;58.40;;;;;;;3.10;100.00;97377.46;101638;1319;62116;-70
2021/11/26 10:24:23;;;;;;;88.60;58.50;;;;;;;3.11;100.00;97372.66;101581;1319;70595;-70
2021/11/26 10:26:54;;;;;;;87.10;58.10;;;;;;;3.09;100.00;97368.02;101530;1318;74608;-71
2021/11/26 10:29:30;;;;;;;84.40;57.50;;;;;;;3.06;100.00;97361.34;101591;1322;62187;-69
2021/11/26 10:32:12;;;;;;;83.30;55.60;;;;;;;3.06;100.00;97350.69;101264;1320;62315;-69
2021/11/26 10:34:41;;;;;;;91.00;57.00;;;;;;;3.05;100.00;97350.89;101538;1320;76157;-70
2021/11/26 10:37:19;;;;;;;95.10;60.70;;;;;;;3.04;100.00;97347.80;101543;1319;69766;-70
2021/11/26 10:39:46;;;;;;;95.00;61.70;;;;;;;3.04;100.00;97340.25;101594;1318;74500;-70
2021/11/26 10:42:25;;;;;;;104.00;64.50;;;;;;;3.05;100.00;97338.11;101157;1322;63796;-70
2021/11/26 10:45:01;;;;;;;103.40;65.70;;;;;;;3.06;100.00;97331.74;101529;1319;62169;-69
2021/11/26 10:50:31;;;;;;;100.70;64.60;;;;;;;3.10;100.00;97327.09;102358;1311;70641;-69
2021/11/26 10:58:52;;;;;;;96.20;63.10;;;;;;;3.11;100.00;97310.02;102331;1313;62108;-70
2021/11/26 11:01:20;;;;;;;93.00;59.50;;;;;;;3.10;100.00;97298.67;102421;1310;76333;-70
2021/11/26 11:03:47;;;;;;;97.30;61.70;;;;;;;3.09;100.00;97286.98;102330;1310;69278;-70
2021/11/26 11:06:24;;;;;;;93.40;59.10;;;;;;;3.09;100.00;97281.36;102168;1310;74417;-71
2021/11/26 11:09:00;;;;;;;92.40;61.40;;;;;;;3.08;100.00;97276.69;102340;1311;62191;-69